createdAt,value
2018-07-12T00:00:48.789Z,16.75
2018-07-12T00:03:14.804Z,16.76
2018-07-12T00:05:40.841Z,16.64
2018-07-12T00:08:06.873Z,16.53
2018-07-12T00:10:33.020Z,16.60
2018-07-12T00:12:59.044Z,16.49
2018-07-12T00:15:25.072Z,16.34
2018-07-12T00:17:51.085Z,16.26
2018-07-12T00:20:17.114Z,16.26
2018-07-12T00:22:43.149Z,16.29
2018-07-12T00:25:09.191Z,16.28
2018-07-12T00:27:35.221Z,16.26
2018-07-12T00:30:01.265Z,16.27
2018-07-12T00:32:27.294Z,16.21
2018-07-12T00:34:53.393Z,16.15
2018-07-12T00:37:19.685Z,16.21
2018-07-12T00:39:45.744Z,16.18
2018-07-12T00:42:11.765Z,16.19
2018-07-12T00:44:37.793Z,16.21
2018-07-12T00:47:03.813Z,16.22
2018-07-12T00:49:29.836Z,16.19
2018-07-12T00:51:55.860Z,16.23
2018-07-12T00:54:21.929Z,16.22
2018-07-12T00:56:47.996Z,16.25
2018-07-12T00:59:14.006Z,16.20
2018-07-12T01:01:40.065Z,16.21
2018-07-12T01:04:06.112Z,16.18
2018-07-12T01:06:32.202Z,16.11
2018-07-12T01:08:58.244Z,16.04
2018-07-12T01:11:24.269Z,16.04
2018-07-12T01:13:50.269Z,15.98
2018-07-12T01:16:16.297Z,15.87
2018-07-12T01:18:42.316Z,15.84
2018-07-12T01:21:08.367Z,15.87
2018-07-12T01:23:34.381Z,15.82
2018-07-12T01:26:00.418Z,15.81
2018-07-12T01:28:26.444Z,15.72
2018-07-12T01:30:52.480Z,15.61
2018-07-12T01:33:18.505Z,15.62
2018-07-12T01:35:44.535Z,15.62
2018-07-12T01:38:10.564Z,15.56
2018-07-12T01:40:36.581Z,15.44
2018-07-12T01:43:02.605Z,15.48
2018-07-12T01:45:28.636Z,15.40
2018-07-12T01:47:54.670Z,15.33
2018-07-12T01:50:20.687Z,15.28
2018-07-12T01:52:46.700Z,15.27
2018-07-12T01:55:12.725Z,15.25
2018-07-12T01:57:38.753Z,15.34
2018-07-12T02:00:04.770Z,15.47
2018-07-12T02:02:30.794Z,15.29
2018-07-12T02:04:56.822Z,15.39
2018-07-12T02:07:22.865Z,15.30
2018-07-12T02:09:48.887Z,15.14
2018-07-12T02:12:14.915Z,15.23
2018-07-12T02:14:40.928Z,15.13
2018-07-12T02:17:06.963Z,15.07
2018-07-12T02:19:32.984Z,15.30
2018-07-12T02:21:59.008Z,15.28
2018-07-12T02:24:25.050Z,15.24
2018-07-12T02:26:51.069Z,15.25
2018-07-12T02:29:17.084Z,15.27
2018-07-12T02:31:43.100Z,15.24
2018-07-12T02:34:09.125Z,15.22
2018-07-12T02:36:35.151Z,15.19
2018-07-12T02:39:01.183Z,15.28
2018-07-12T02:41:27.205Z,15.29
2018-07-12T02:43:53.225Z,15.30
2018-07-12T02:46:19.255Z,15.30
2018-07-12T02:48:45.276Z,15.29
2018-07-12T02:51:11.306Z,15.28
2018-07-12T02:53:37.326Z,15.28
2018-07-12T02:56:03.463Z,15.30
2018-07-12T02:58:29.484Z,15.29
2018-07-12T03:00:55.508Z,15.28
2018-07-12T03:03:21.525Z,15.27
2018-07-12T03:05:47.540Z,15.27
2018-07-12T03:08:13.590Z,15.26
2018-07-12T03:10:39.585Z,15.22
2018-07-12T03:13:05.611Z,15.20
2018-07-12T03:15:31.635Z,15.19
2018-07-12T03:17:57.647Z,15.21
2018-07-12T03:20:23.654Z,15.13
2018-07-12T03:22:49.672Z,15.10
2018-07-12T03:25:15.693Z,15.06
2018-07-12T03:27:41.708Z,15.05
2018-07-12T03:30:07.737Z,15.02
2018-07-12T03:32:33.773Z,15.01
2018-07-12T03:34:59.803Z,15.00
2018-07-12T03:37:25.837Z,14.96
2018-07-12T03:39:51.878Z,14.98
2018-07-12T03:42:17.917Z,14.94
2018-07-12T03:44:43.954Z,14.91
2018-07-12T03:47:09.993Z,14.87
2018-07-12T03:49:36.022Z,14.94
2018-07-12T03:52:02.065Z,14.97
2018-07-12T03:54:28.093Z,15.00
2018-07-12T03:56:54.152Z,15.10
2018-07-12T03:59:20.193Z,15.11
2018-07-12T04:01:46.230Z,15.13
2018-07-12T04:04:12.253Z,15.17
2018-07-12T04:06:38.296Z,15.19
2018-07-12T04:09:04.923Z,15.21
2018-07-12T04:11:30.965Z,15.31
2018-07-12T04:13:57.004Z,15.35
2018-07-12T04:16:23.036Z,15.48
2018-07-12T04:18:49.053Z,15.56
2018-07-12T04:21:15.087Z,15.64
2018-07-12T04:23:41.104Z,15.70
2018-07-12T04:26:07.132Z,15.78
2018-07-12T04:28:33.163Z,15.73
2018-07-12T04:30:59.196Z,15.92
2018-07-12T04:33:25.234Z,15.98
2018-07-12T04:35:51.256Z,16.03
2018-07-12T04:38:17.285Z,16.08
2018-07-12T04:40:43.304Z,16.16
2018-07-12T04:43:09.336Z,16.28
2018-07-12T04:45:35.356Z,16.35
2018-07-12T04:48:01.402Z,16.44
2018-07-12T04:50:27.428Z,16.53
2018-07-12T04:52:53.454Z,16.66
2018-07-12T04:55:19.473Z,16.72
2018-07-12T04:57:45.528Z,16.81
2018-07-12T05:00:11.561Z,17.01
2018-07-12T05:02:37.589Z,17.14
2018-07-12T05:05:03.618Z,17.26
2018-07-12T05:07:29.653Z,17.36
2018-07-12T05:09:55.686Z,17.37
2018-07-12T05:12:21.725Z,17.48
2018-07-12T05:14:47.761Z,17.55
2018-07-12T05:17:13.808Z,17.75
2018-07-12T05:19:39.845Z,17.86
2018-07-12T05:22:05.886Z,17.99
2018-07-12T05:24:31.915Z,18.03
2018-07-12T05:26:57.953Z,18.09
2018-07-12T05:29:23.992Z,18.24
2018-07-12T05:31:50.044Z,18.31
2018-07-12T05:34:16.060Z,18.58
2018-07-12T05:36:54.735Z,18.60
2018-07-12T05:39:21.688Z,18.61
2018-07-12T05:41:48.704Z,18.70
2018-07-12T05:44:16.181Z,18.80
2018-07-12T05:46:43.238Z,18.80
2018-07-12T05:49:10.133Z,18.87
2018-07-12T05:51:37.037Z,18.94
2018-07-12T05:54:03.965Z,18.98
2018-07-12T05:56:30.869Z,19.04
2018-07-12T05:58:57.804Z,19.11
2018-07-12T06:01:36.241Z,19.33
2018-07-12T06:04:03.185Z,19.34
2018-07-12T06:06:30.093Z,19.23
2018-07-12T06:08:57.031Z,19.25
2018-07-12T06:11:23.949Z,19.18
2018-07-12T06:13:50.873Z,19.45
2018-07-12T06:16:17.796Z,19.53
2018-07-12T06:18:44.716Z,19.56
2018-07-12T06:21:11.648Z,19.74
2018-07-12T06:23:38.557Z,19.69
2018-07-12T06:26:05.497Z,19.70
2018-07-12T06:28:32.407Z,19.66
2018-07-12T06:30:59.328Z,19.78
2018-07-12T06:33:26.261Z,19.98
2018-07-12T06:35:53.177Z,19.92
2018-07-12T06:38:20.104Z,19.97
2018-07-12T06:40:47.005Z,20.13
2018-07-12T06:43:13.937Z,20.36
2018-07-12T06:45:40.849Z,20.36
2018-07-12T06:48:07.797Z,20.39
2018-07-12T06:50:34.710Z,20.49
2018-07-12T06:53:01.649Z,20.67
2018-07-12T06:55:28.559Z,20.65
2018-07-12T07:00:28.209Z,21.00
2018-07-12T07:02:55.124Z,21.12
2018-07-12T07:05:22.065Z,21.20
2018-07-12T07:07:48.986Z,21.36
2018-07-12T07:10:15.907Z,21.39
2018-07-12T07:12:42.845Z,21.84
2018-07-12T07:15:09.748Z,21.84
2018-07-12T07:17:36.649Z,21.94
2018-07-12T07:20:03.577Z,22.21
2018-07-12T07:22:30.482Z,22.14
2018-07-12T07:24:57.405Z,22.35
2018-07-12T07:27:24.313Z,22.63
2018-07-12T07:29:51.232Z,22.84
2018-07-12T07:32:18.347Z,22.63
2018-07-12T07:34:45.256Z,22.94
2018-07-12T07:37:12.165Z,22.65
2018-07-12T07:39:39.084Z,22.79
2018-07-12T07:42:06.000Z,23.09
2018-07-12T07:44:32.934Z,23.16
2018-07-12T07:46:59.861Z,23.15
2018-07-12T07:49:26.791Z,23.69
2018-07-12T07:51:53.710Z,23.85
2018-07-12T07:54:20.628Z,23.80
2018-07-12T07:56:47.544Z,23.81
2018-07-12T07:59:14.488Z,23.77
2018-07-12T08:01:41.422Z,23.86
2018-07-12T08:04:08.348Z,23.95
2018-07-12T08:06:35.254Z,24.18
2018-07-12T08:09:02.292Z,24.25
2018-07-12T08:11:29.185Z,24.58
2018-07-12T08:13:56.082Z,24.52
2018-07-12T08:16:23.023Z,24.93
2018-07-12T08:18:49.893Z,24.45
2018-07-12T08:21:16.794Z,24.13
2018-07-12T08:23:44.816Z,24.19
2018-07-12T08:26:11.736Z,23.94
2018-07-12T08:28:38.628Z,23.69
2018-07-12T08:31:05.582Z,23.82
2018-07-12T08:33:32.476Z,24.11
2018-07-12T08:35:59.369Z,23.81
2018-07-12T08:38:26.281Z,23.89
2018-07-12T08:40:53.191Z,24.05
2018-07-12T08:43:20.093Z,24.22
2018-07-12T08:45:47.014Z,25.03
2018-07-12T08:48:13.934Z,25.12
2018-07-12T08:50:40.868Z,24.44
2018-07-12T08:53:08.052Z,24.88
2018-07-12T08:55:34.893Z,24.56
2018-07-12T08:58:01.800Z,25.14
2018-07-12T09:00:28.713Z,25.09
2018-07-12T09:02:55.606Z,24.92
2018-07-12T09:05:22.513Z,25.19
2018-07-12T09:07:49.404Z,25.25
2018-07-12T09:10:16.292Z,25.39
2018-07-12T09:12:43.449Z,25.29
2018-07-12T09:15:10.433Z,25.35
2018-07-12T09:17:37.333Z,26.08
2018-07-12T09:20:04.305Z,26.18
2018-07-12T09:22:31.265Z,26.60
2018-07-12T09:24:58.193Z,26.09
2018-07-12T09:27:25.143Z,26.32
2018-07-12T09:29:52.067Z,27.17
2018-07-12T09:32:19.228Z,26.80
2018-07-12T09:34:46.217Z,26.31
2018-07-12T09:37:13.093Z,26.10
2018-07-12T09:39:40.044Z,26.37
2018-07-12T09:42:07.009Z,26.72
2018-07-12T09:44:33.909Z,26.72
2018-07-12T09:47:00.820Z,26.49
2018-07-12T09:49:27.708Z,26.76
2018-07-12T09:51:54.621Z,26.33
2018-07-12T09:54:21.542Z,26.85
2018-07-12T09:57:00.118Z,26.82
2018-07-12T09:59:27.040Z,27.10
2018-07-12T10:01:59.616Z,26.58
2018-07-12T10:04:27.153Z,27.29
2018-07-12T10:06:59.925Z,27.61
2018-07-12T10:09:32.662Z,27.51
2018-07-12T10:12:05.341Z,27.15
2018-07-12T10:14:38.125Z,26.78
2018-07-12T10:17:11.213Z,27.31
2018-07-12T10:19:38.377Z,27.99
2018-07-12T10:22:05.532Z,28.34
2018-07-12T10:24:32.436Z,27.41
2018-07-12T10:26:59.347Z,27.78
2018-07-12T10:29:26.256Z,27.06
2018-07-12T10:31:53.160Z,26.73
2018-07-12T10:34:20.053Z,27.18
2018-07-12T10:36:46.964Z,27.29
2018-07-12T10:39:13.868Z,27.60
2018-07-12T10:41:40.801Z,27.25
2018-07-12T10:44:07.689Z,27.50
2018-07-12T10:46:34.593Z,27.44
2018-07-12T10:49:01.509Z,27.13
2018-07-12T10:51:28.441Z,28.07
2018-07-12T10:53:55.353Z,27.80
2018-07-12T10:56:22.279Z,27.32
2018-07-12T10:58:49.222Z,27.45
2018-07-12T11:01:16.149Z,28.16
2018-07-12T11:03:43.050Z,27.56
2018-07-12T11:06:09.961Z,27.63
2018-07-12T11:08:36.875Z,28.40
2018-07-12T11:11:03.809Z,28.02
2018-07-12T11:13:42.348Z,27.86
2018-07-12T11:16:09.266Z,27.55
2018-07-12T11:18:36.161Z,26.94
2018-07-12T11:21:03.105Z,26.70
2018-07-12T11:23:29.992Z,26.23
2018-07-12T11:25:56.905Z,26.40
2018-07-12T11:28:23.810Z,26.21
2018-07-12T11:30:50.740Z,27.25
2018-07-12T11:33:32.137Z,27.82
2018-07-12T11:35:59.102Z,28.08
2018-07-12T11:38:26.004Z,28.42
2018-07-12T11:40:52.913Z,28.46
2018-07-12T11:43:19.827Z,28.24
2018-07-12T11:45:46.736Z,27.99
2018-07-12T11:48:13.667Z,27.09
2018-07-12T11:50:40.562Z,26.68
2018-07-12T11:53:07.493Z,26.69
2018-07-12T11:55:34.412Z,26.40
2018-07-12T11:58:01.340Z,26.28
2018-07-12T12:00:28.241Z,26.18
2018-07-12T12:02:55.153Z,26.11
2018-07-12T12:05:22.076Z,26.27
2018-07-12T12:07:48.989Z,26.23
2018-07-12T12:10:15.880Z,26.78
2018-07-12T12:12:42.795Z,27.51
2018-07-12T12:15:09.704Z,27.61
2018-07-12T12:17:36.641Z,27.94
2018-07-12T12:20:03.571Z,26.98
2018-07-12T12:22:30.484Z,26.89
2018-07-12T12:24:57.394Z,26.47
2018-07-12T12:27:24.327Z,26.79
2018-07-12T12:29:51.232Z,26.81
2018-07-12T12:32:18.146Z,26.72
2018-07-12T12:34:45.050Z,26.38
2018-07-12T12:37:11.978Z,26.11
2018-07-12T12:39:38.880Z,26.04
2018-07-12T12:42:05.780Z,26.06
2018-07-12T12:44:32.677Z,26.17
2018-07-12T12:46:59.592Z,26.11
2018-07-12T12:49:26.501Z,26.21
2018-07-12T12:51:53.565Z,26.25
2018-07-12T12:54:20.482Z,26.48
2018-07-12T12:56:47.388Z,26.94
2018-07-12T12:59:14.729Z,27.49
2018-07-12T13:01:42.224Z,28.42
2018-07-12T13:04:09.160Z,28.86
2018-07-12T13:06:36.048Z,29.01
2018-07-12T13:09:04.714Z,29.71
2018-07-12T13:11:31.771Z,29.23
2018-07-12T13:14:00.068Z,27.48
2018-07-12T13:16:27.017Z,27.08
2018-07-12T13:18:53.930Z,26.92
2018-07-12T13:21:20.829Z,26.85
2018-07-12T13:23:47.957Z,26.83
2018-07-12T13:26:14.868Z,26.91
2018-07-12T13:28:41.782Z,26.79
2018-07-12T13:31:08.692Z,27.17
2018-07-12T13:33:35.602Z,27.21
2018-07-12T13:36:02.503Z,27.12
2018-07-12T13:38:29.416Z,28.27
2018-07-12T13:40:56.338Z,28.61
2018-07-12T13:43:23.316Z,28.03
2018-07-12T13:45:50.306Z,27.98
2018-07-12T13:48:17.249Z,28.26
2018-07-12T13:50:44.164Z,27.49
2018-07-12T13:53:11.180Z,27.26
2018-07-12T13:55:38.075Z,26.76
2018-07-12T13:58:05.072Z,26.91
2018-07-12T14:00:31.976Z,27.13
2018-07-12T14:02:58.881Z,27.91
2018-07-12T14:05:25.795Z,28.27
2018-07-12T14:07:52.709Z,28.86
2018-07-12T14:10:19.953Z,28.45
2018-07-12T14:12:46.863Z,27.91
2018-07-12T14:15:13.781Z,26.91
2018-07-12T14:17:40.698Z,26.49
2018-07-12T14:20:07.622Z,26.11
2018-07-12T14:22:34.524Z,26.22
2018-07-12T14:25:01.499Z,26.14
2018-07-12T14:27:28.449Z,26.29
2018-07-12T14:29:55.357Z,26.62
2018-07-12T14:32:22.266Z,26.97
2018-07-12T14:34:50.044Z,26.69
2018-07-12T14:37:16.962Z,26.18
2018-07-12T14:39:43.837Z,26.09
2018-07-12T14:42:10.769Z,26.07
2018-07-12T14:44:37.673Z,26.37
2018-07-12T14:47:04.606Z,26.23
2018-07-12T14:49:31.462Z,26.27
2018-07-12T14:51:58.544Z,26.19
2018-07-12T14:54:25.636Z,26.24
2018-07-12T14:56:52.976Z,25.99
2018-07-12T14:59:19.922Z,25.98
2018-07-12T15:01:46.824Z,26.01
2018-07-12T15:04:13.748Z,25.90
2018-07-12T15:06:40.706Z,25.90
2018-07-12T15:09:08.329Z,25.97
2018-07-12T15:11:35.217Z,25.80
2018-07-12T15:14:02.130Z,26.06
2018-07-12T15:16:29.042Z,25.91
2018-07-12T15:18:55.983Z,26.13
2018-07-12T15:21:23.044Z,26.20
2018-07-12T15:23:49.947Z,26.19
2018-07-12T15:26:16.890Z,26.13
2018-07-12T15:28:43.810Z,25.87
2018-07-12T15:31:10.745Z,25.69
2018-07-12T15:33:37.669Z,25.88
2018-07-12T15:36:04.594Z,25.75
2018-07-12T15:38:31.577Z,25.81
2018-07-12T15:40:58.688Z,25.53
2018-07-12T15:43:25.609Z,25.45
2018-07-12T15:45:52.528Z,25.46
2018-07-12T15:48:19.457Z,25.49
2018-07-12T15:50:46.391Z,25.38
2018-07-12T15:53:13.322Z,25.35
2018-07-12T15:55:40.236Z,25.62
2018-07-12T15:58:07.164Z,25.66
2018-07-12T16:00:34.087Z,25.56
2018-07-12T16:03:00.996Z,25.24
2018-07-12T16:05:27.901Z,25.29
2018-07-12T16:07:54.812Z,25.18
2018-07-12T16:10:21.721Z,25.34
2018-07-12T16:12:48.626Z,25.15
2018-07-12T16:15:15.548Z,25.01
2018-07-12T16:17:42.486Z,24.95
2018-07-12T16:20:09.400Z,25.09
2018-07-12T16:22:36.309Z,24.97
2018-07-12T16:25:03.317Z,25.24
2018-07-12T16:27:30.285Z,25.02
2018-07-12T16:29:57.231Z,24.76
2018-07-12T16:32:24.135Z,24.96
2018-07-12T16:34:51.315Z,24.98
2018-07-12T16:37:18.213Z,25.10
2018-07-12T16:39:45.149Z,24.73
2018-07-12T16:42:12.049Z,24.58
2018-07-12T16:44:39.025Z,24.56
2018-07-12T16:47:06.140Z,24.38
2018-07-12T16:49:33.033Z,24.50
2018-07-12T16:52:00.146Z,24.35
2018-07-12T16:54:27.060Z,24.30
2018-07-12T16:56:53.982Z,24.24
2018-07-12T16:59:21.030Z,24.37
2018-07-12T17:01:49.310Z,24.07
2018-07-12T17:04:18.030Z,24.04
2018-07-12T17:06:45.654Z,24.03
2018-07-12T17:09:12.649Z,24.29
2018-07-12T17:11:39.647Z,24.31
2018-07-12T17:14:06.628Z,24.13
2018-07-12T17:16:33.728Z,24.01
2018-07-12T17:19:01.677Z,24.04
2018-07-12T17:21:28.665Z,23.90
2018-07-12T17:23:55.759Z,23.84
2018-07-12T17:26:22.901Z,23.92
2018-07-12T17:28:50.054Z,23.91
2018-07-12T17:31:17.032Z,24.08
2018-07-12T17:33:43.938Z,24.03
2018-07-12T17:36:10.894Z,23.92
2018-07-12T17:38:37.825Z,23.97
2018-07-12T17:41:04.837Z,23.66
2018-07-12T17:43:31.694Z,23.52
2018-07-12T17:45:58.614Z,23.50
2018-07-12T17:48:25.574Z,23.41
2018-07-12T17:50:52.481Z,23.44
2018-07-12T17:53:19.396Z,23.32
2018-07-12T17:55:46.310Z,23.25
2018-07-12T17:58:13.229Z,23.19
2018-07-12T18:00:40.168Z,23.14
2018-07-12T18:03:07.067Z,23.11
2018-07-12T18:05:34.063Z,22.90
2018-07-12T18:08:00.899Z,22.77
2018-07-12T18:10:27.848Z,22.70
2018-07-12T18:12:54.777Z,22.68
2018-07-12T18:15:21.684Z,22.55
2018-07-12T18:17:48.612Z,22.50
2018-07-12T18:20:15.516Z,22.58
2018-07-12T18:22:42.437Z,22.49
2018-07-12T18:25:09.332Z,22.33
2018-07-12T18:27:36.853Z,22.23
2018-07-12T18:30:04.221Z,22.15
2018-07-12T18:32:31.128Z,21.99
2018-07-12T18:34:58.025Z,21.88
2018-07-12T18:37:24.945Z,21.91
2018-07-12T18:39:52.309Z,21.60
2018-07-12T18:42:19.257Z,21.50
2018-07-12T18:44:46.162Z,21.48
2018-07-12T18:47:13.060Z,21.31
2018-07-12T18:49:39.980Z,21.12
2018-07-12T18:52:06.920Z,20.93
2018-07-12T18:54:33.817Z,20.99
2018-07-12T18:57:00.740Z,20.90
2018-07-12T18:59:27.652Z,20.77
2018-07-12T19:01:54.570Z,20.68
2018-07-12T19:04:21.485Z,20.58
2018-07-12T19:06:48.404Z,20.55
2018-07-12T19:09:15.315Z,20.33
2018-07-12T19:11:42.213Z,20.31
2018-07-12T19:14:09.157Z,20.10
2018-07-12T19:16:36.069Z,20.00
2018-07-12T19:19:03.290Z,20.02
2018-07-12T19:21:30.200Z,19.83
2018-07-12T19:23:57.156Z,19.73
2018-07-12T19:26:24.174Z,19.68
2018-07-12T19:28:51.034Z,19.67
2018-07-12T19:31:17.968Z,19.55
2018-07-12T19:33:44.880Z,19.34
2018-07-12T19:36:11.802Z,19.33
2018-07-12T19:38:38.731Z,19.22
2018-07-12T19:41:05.678Z,19.12
2018-07-12T19:43:32.584Z,19.04
2018-07-12T19:45:59.513Z,18.88
2018-07-12T19:48:26.457Z,18.73
2018-07-12T19:50:53.373Z,18.67
2018-07-12T19:53:20.312Z,18.55
2018-07-12T19:55:47.235Z,18.39
2018-07-12T19:58:14.217Z,18.29
2018-07-12T20:00:41.168Z,18.19
2018-07-12T20:03:08.188Z,18.23
2018-07-12T20:05:35.108Z,18.19
2018-07-12T20:08:02.052Z,17.92
2018-07-12T20:10:29.035Z,17.81
2018-07-12T20:12:55.976Z,17.75
2018-07-12T20:15:22.893Z,17.72
2018-07-12T20:17:49.849Z,17.63
2018-07-12T20:20:16.804Z,17.70
2018-07-12T20:22:43.728Z,17.63
2018-07-12T20:25:10.692Z,17.59
2018-07-12T20:27:37.613Z,17.49
2018-07-12T20:30:05.065Z,17.41
2018-07-12T20:32:31.987Z,17.37
2018-07-12T20:34:58.893Z,17.23
2018-07-12T20:37:25.834Z,17.33
2018-07-12T20:39:52.740Z,17.19
2018-07-12T20:42:19.681Z,17.08
2018-07-12T20:44:46.600Z,17.05
2018-07-12T20:47:13.539Z,16.91
2018-07-12T20:49:40.459Z,16.90
2018-07-12T20:52:07.424Z,16.87
2018-07-12T20:54:34.352Z,16.78
2018-07-12T20:57:01.269Z,16.80
2018-07-12T20:59:28.185Z,16.80
2018-07-12T21:01:55.116Z,16.69
2018-07-12T21:04:22.048Z,16.77
2018-07-12T21:06:48.960Z,16.60
2018-07-12T21:09:15.866Z,16.51
2018-07-12T21:11:42.768Z,16.58
2018-07-12T21:14:09.705Z,16.51
2018-07-12T21:16:36.625Z,16.43
2018-07-12T21:19:03.573Z,16.31
2018-07-12T21:21:30.496Z,16.31
2018-07-12T21:23:57.429Z,16.25
2018-07-12T21:26:24.337Z,16.24
2018-07-12T21:28:51.270Z,16.22
2018-07-12T21:31:18.189Z,16.12
2018-07-12T21:33:45.121Z,16.16
2018-07-12T21:36:12.033Z,16.06
2018-07-12T21:38:38.963Z,16.25
2018-07-12T21:41:05.899Z,16.17
2018-07-12T21:43:39.674Z,16.09
2018-07-12T21:46:08.131Z,16.04
2018-07-12T21:48:35.076Z,16.02
2018-07-12T21:51:01.989Z,16.04
2018-07-12T21:53:28.916Z,16.06
2018-07-12T21:55:55.929Z,16.07
2018-07-12T21:58:23.285Z,16.28
2018-07-12T22:00:51.588Z,16.09
2018-07-12T22:03:18.616Z,16.07
2018-07-12T22:05:45.635Z,16.07
2018-07-12T22:08:16.152Z,16.11
2018-07-12T22:10:43.964Z,15.78
2018-07-12T22:13:11.480Z,16.02
2018-07-12T22:15:38.421Z,15.96
2018-07-12T22:18:05.677Z,16.11
2018-07-12T22:20:32.645Z,16.26
2018-07-12T22:23:04.404Z,16.11
2018-07-12T22:25:31.857Z,16.06
2018-07-12T22:27:59.713Z,15.95
2018-07-12T22:30:27.774Z,15.94
2018-07-12T22:33:00.160Z,16.05
2018-07-12T22:35:28.156Z,15.98
2018-07-12T22:37:59.645Z,15.78
2018-07-12T22:40:27.946Z,15.73
2018-07-12T22:42:54.918Z,15.87
2018-07-12T22:45:21.900Z,15.89
2018-07-12T22:47:50.150Z,15.80
2018-07-12T22:50:17.425Z,15.64
2018-07-12T22:52:44.353Z,15.65
2018-07-12T22:55:11.281Z,15.61
2018-07-12T22:57:38.208Z,15.61
2018-07-12T23:00:05.831Z,15.55
2018-07-12T23:02:32.745Z,15.72
2018-07-12T23:04:59.664Z,15.68
2018-07-12T23:07:26.574Z,15.67
2018-07-12T23:09:54.232Z,15.78
2018-07-12T23:12:21.195Z,15.81
2018-07-12T23:14:48.112Z,15.68
2018-07-12T23:17:16.300Z,15.76
2018-07-12T23:19:43.296Z,15.76
2018-07-12T23:22:10.221Z,15.75
2018-07-12T23:24:37.215Z,15.82
2018-07-12T23:27:04.158Z,15.65
2018-07-12T23:29:31.110Z,15.64
2018-07-12T23:31:58.033Z,15.65
2018-07-12T23:34:25.328Z,15.66
2018-07-12T23:36:52.738Z,15.74
2018-07-12T23:39:19.692Z,15.73
2018-07-12T23:41:47.657Z,15.72
2018-07-12T23:44:14.727Z,15.68
2018-07-12T23:46:43.067Z,15.57
2018-07-12T23:49:11.045Z,15.65
2018-07-12T23:51:39.390Z,15.57
2018-07-12T23:54:06.553Z,15.67
2018-07-12T23:56:36.233Z,15.65
2018-07-12T23:59:03.216Z,15.59
